createdAt,value
2019-03-04T00:00:25.239Z,13.84
2019-03-04T00:01:25.275Z,13.83
2019-03-04T00:02:46.286Z,14.02
2019-03-04T00:06:09.855Z,13.80
2019-03-04T00:07:09.869Z,13.69
2019-03-04T00:08:09.889Z,13.74
2019-03-04T00:09:09.913Z,13.91
2019-03-04T00:10:30.948Z,13.94
2019-03-04T00:11:09.933Z,13.88
2019-03-04T00:12:09.969Z,13.80
2019-03-04T00:13:09.967Z,13.67
2019-03-04T00:14:09.988Z,13.76
2019-03-04T00:15:10.095Z,13.88
2019-03-04T00:16:31.245Z,13.80
2019-03-04T00:17:10.070Z,13.79
2019-03-04T00:18:10.063Z,13.76
2019-03-04T00:19:10.084Z,13.67
2019-03-04T00:20:10.101Z,13.67
2019-03-04T00:21:10.116Z,13.65
2019-03-04T00:22:31.141Z,13.65
2019-03-04T00:23:10.145Z,13.63
2019-03-04T00:24:10.180Z,13.70
2019-03-04T00:25:10.228Z,13.58
2019-03-04T00:26:10.201Z,13.62
2019-03-04T00:27:10.243Z,13.69
2019-03-04T00:28:31.249Z,13.61
2019-03-04T00:29:10.256Z,13.62
2019-03-04T00:30:10.278Z,13.69
2019-03-04T00:31:10.300Z,13.62
2019-03-04T00:32:10.374Z,13.65
2019-03-04T00:33:10.331Z,13.55
2019-03-04T00:34:31.371Z,13.46
2019-03-04T00:35:10.411Z,13.43
2019-03-04T00:36:10.414Z,13.37
2019-03-04T00:37:10.405Z,13.37
2019-03-04T00:38:10.410Z,13.32
2019-03-04T00:39:10.431Z,13.30
2019-03-04T00:40:31.469Z,13.29
2019-03-04T00:41:10.476Z,13.36
2019-03-04T00:42:10.490Z,13.33
2019-03-04T00:43:10.509Z,13.37
2019-03-04T00:44:10.524Z,13.25
2019-03-04T00:45:10.547Z,13.32
2019-03-04T00:46:31.577Z,13.18
2019-03-04T00:47:10.582Z,13.25
2019-03-04T00:48:10.598Z,13.29
2019-03-04T00:49:10.604Z,13.24
2019-03-04T00:50:10.651Z,13.18
2019-03-04T00:51:10.651Z,13.24
2019-03-04T00:52:31.675Z,13.14
2019-03-04T00:53:10.687Z,13.24
2019-03-04T00:54:10.702Z,13.20
2019-03-04T00:55:10.727Z,13.17
2019-03-04T00:56:10.739Z,13.20
2019-03-04T00:57:10.760Z,13.07
2019-03-04T00:58:31.856Z,13.11
2019-03-04T00:59:10.785Z,13.11
2019-03-04T01:00:10.797Z,13.03
2019-03-04T01:01:10.828Z,12.92
2019-03-04T01:02:10.838Z,12.95
2019-03-04T01:03:10.870Z,12.87
2019-03-04T01:04:31.912Z,12.70
2019-03-04T01:05:10.900Z,12.79
2019-03-04T01:06:10.915Z,12.81
2019-03-04T01:07:10.928Z,12.99
2019-03-04T01:08:10.952Z,12.99
2019-03-04T01:09:10.962Z,13.02
2019-03-04T01:10:31.997Z,12.97
2019-03-04T01:12:57.369Z,12.97
2019-03-04T01:13:57.388Z,12.96
2019-03-04T01:14:57.409Z,12.95
2019-03-04T01:19:11.381Z,13.07
2019-03-04T01:19:50.459Z,13.06
2019-03-04T01:20:50.413Z,13.04
2019-03-04T01:21:50.436Z,13.04
2019-03-04T01:22:50.452Z,13.06
2019-03-04T01:23:51.566Z,13.11
2019-03-04T01:25:11.553Z,13.12
2019-03-04T01:25:50.503Z,12.97
2019-03-04T01:26:50.641Z,13.07
2019-03-04T01:27:50.534Z,13.03
2019-03-04T01:28:50.548Z,13.22
2019-03-04T01:29:50.575Z,13.21
2019-03-04T01:34:08.373Z,13.09
2019-03-04T01:35:08.397Z,13.18
2019-03-04T01:36:08.414Z,13.12
2019-03-04T01:37:08.428Z,13.24
2019-03-04T01:38:08.443Z,13.29
2019-03-04T01:39:29.483Z,13.17
2019-03-04T01:40:08.475Z,13.27
2019-03-04T01:41:08.494Z,13.25
2019-03-04T01:42:08.529Z,13.36
2019-03-04T01:43:08.529Z,13.30
2019-03-04T01:44:08.566Z,13.18
2019-03-04T01:45:29.589Z,13.33
2019-03-04T01:46:08.588Z,13.21
2019-03-04T01:47:08.624Z,13.12
2019-03-04T01:48:08.614Z,13.24
2019-03-04T01:49:08.640Z,13.17
2019-03-04T01:50:08.649Z,13.04
2019-03-04T01:51:29.712Z,13.15
2019-03-04T01:52:08.693Z,13.07
2019-03-04T01:53:08.703Z,12.84
2019-03-04T01:54:08.841Z,12.67
2019-03-04T01:55:08.767Z,12.69
2019-03-04T01:56:08.755Z,12.71
2019-03-04T01:57:29.791Z,12.87
2019-03-04T01:58:08.801Z,12.78
2019-03-04T01:59:08.820Z,12.74
2019-03-04T02:00:08.832Z,12.79
2019-03-04T02:01:08.864Z,12.81
2019-03-04T02:02:08.863Z,12.71
2019-03-04T02:03:29.939Z,12.64
2019-03-04T02:04:08.976Z,12.78
2019-03-04T02:05:08.920Z,12.64
2019-03-04T02:06:08.931Z,12.74
2019-03-04T02:07:08.968Z,12.75
2019-03-04T02:08:08.986Z,12.74
2019-03-04T02:09:30.020Z,12.84
2019-03-04T02:10:09.011Z,12.78
2019-03-04T02:11:09.018Z,12.78
2019-03-04T02:12:09.044Z,12.74
2019-03-04T02:13:09.061Z,12.69
2019-03-04T02:14:09.216Z,12.63
2019-03-04T02:15:30.300Z,12.67
2019-03-04T02:17:51.381Z,12.69
2019-03-04T02:18:51.401Z,12.70
2019-03-04T02:19:51.423Z,12.71
2019-03-04T02:20:51.435Z,12.71
2019-03-04T02:22:12.473Z,12.74
2019-03-04T02:22:51.474Z,12.78
2019-03-04T02:23:51.480Z,12.84
2019-03-04T02:24:51.512Z,12.84
2019-03-04T02:25:51.527Z,12.87
2019-03-04T02:26:51.554Z,12.82
2019-03-04T02:28:12.594Z,12.85
2019-03-04T02:28:51.738Z,12.89
2019-03-04T02:29:51.634Z,12.97
2019-03-04T02:30:51.650Z,12.95
2019-03-04T02:31:51.707Z,12.87
2019-03-04T02:32:51.684Z,12.84
2019-03-04T02:34:12.708Z,12.82
2019-03-04T02:34:51.686Z,12.81
2019-03-04T02:35:51.699Z,12.77
2019-03-04T02:36:51.710Z,12.93
2019-03-04T02:37:51.752Z,13.03
2019-03-04T02:38:51.930Z,12.96
2019-03-04T02:40:12.790Z,12.96
2019-03-04T02:40:51.791Z,12.96
2019-03-04T02:41:51.835Z,12.99
2019-03-04T02:42:51.824Z,13.07
2019-03-04T02:43:51.854Z,13.07
2019-03-04T02:44:51.858Z,13.07
2019-03-04T02:46:12.888Z,12.97
2019-03-04T02:46:51.887Z,12.93
2019-03-04T02:47:51.938Z,12.92
2019-03-04T02:48:51.969Z,12.96
2019-03-04T02:49:51.955Z,12.93
2019-03-04T02:52:58.917Z,12.69
2019-03-04T02:53:37.932Z,12.70
2019-03-04T02:54:37.926Z,12.52
2019-03-04T02:55:37.940Z,12.49
2019-03-04T02:56:37.957Z,12.59
2019-03-04T02:57:37.984Z,12.60
2019-03-04T02:58:59.019Z,12.67
2019-03-04T02:59:38.106Z,12.70
2019-03-04T03:00:38.051Z,12.69
2019-03-04T03:01:38.044Z,12.69
2019-03-04T03:02:38.110Z,12.75
2019-03-04T03:03:38.082Z,12.82
2019-03-04T03:04:59.124Z,12.71
2019-03-04T03:05:38.129Z,12.70
2019-03-04T03:06:38.150Z,12.70
2019-03-04T03:07:38.164Z,12.74
2019-03-04T03:08:38.192Z,12.81
2019-03-04T03:09:38.268Z,12.78
2019-03-04T03:10:59.227Z,12.69
2019-03-04T03:11:38.234Z,12.85
2019-03-04T03:12:38.284Z,12.88
2019-03-04T03:13:38.269Z,12.95
2019-03-04T03:14:38.276Z,12.77
2019-03-04T03:15:38.291Z,12.78
2019-03-04T03:16:59.326Z,12.69
2019-03-04T03:17:38.441Z,12.78
2019-03-04T03:18:38.340Z,12.81
2019-03-04T03:19:38.505Z,12.85
2019-03-04T03:20:38.380Z,12.79
2019-03-04T03:21:38.395Z,12.74
2019-03-04T03:22:59.449Z,12.85
2019-03-04T03:23:38.497Z,12.84
2019-03-04T03:24:38.595Z,12.85
2019-03-04T03:25:38.467Z,12.85
2019-03-04T03:26:38.484Z,12.77
2019-03-04T03:27:38.506Z,12.84
2019-03-04T03:28:59.567Z,12.81
2019-03-04T03:29:38.577Z,12.82
2019-03-04T03:30:38.556Z,12.96
2019-03-04T03:31:38.576Z,12.81
2019-03-04T03:32:38.582Z,12.74
2019-03-04T03:33:38.605Z,12.81
2019-03-04T03:34:59.642Z,12.84
2019-03-04T03:35:38.642Z,12.77
2019-03-04T03:36:38.656Z,12.75
2019-03-04T03:37:38.689Z,12.92
2019-03-04T03:38:38.695Z,12.82
2019-03-04T03:39:38.730Z,12.95
2019-03-04T03:40:59.740Z,12.82
2019-03-04T03:41:38.862Z,12.84
2019-03-04T03:42:38.771Z,12.81
2019-03-04T03:43:38.782Z,12.85
2019-03-04T03:44:38.805Z,12.92
2019-03-04T03:45:38.843Z,12.87
2019-03-04T03:46:59.842Z,12.95
2019-03-04T03:47:38.860Z,12.93
2019-03-04T03:48:38.868Z,12.96
2019-03-04T03:49:38.889Z,12.99
2019-03-04T03:52:21.023Z,12.95
2019-03-04T03:53:41.986Z,12.82
2019-03-04T03:54:20.942Z,12.81
2019-03-04T03:55:20.959Z,12.82
2019-03-04T03:56:20.975Z,12.75
2019-03-04T03:57:21.033Z,12.96
2019-03-04T03:58:21.009Z,12.82
2019-03-04T03:59:42.049Z,12.87
2019-03-04T04:00:21.052Z,12.77
2019-03-04T04:01:21.077Z,12.81
2019-03-04T04:02:21.143Z,12.92
2019-03-04T04:03:21.097Z,12.71
2019-03-04T04:04:21.121Z,12.70
2019-03-04T04:05:42.171Z,12.81
2019-03-04T04:06:21.153Z,12.78
2019-03-04T04:07:21.177Z,12.88
2019-03-04T04:08:21.193Z,12.92
2019-03-04T04:09:21.205Z,13.00
2019-03-04T04:10:21.275Z,12.97
2019-03-04T04:11:42.266Z,12.84
2019-03-04T04:12:21.360Z,12.81
2019-03-04T04:13:21.267Z,12.85
2019-03-04T04:14:21.293Z,12.87
2019-03-04T04:15:21.469Z,12.85
2019-03-04T04:16:21.483Z,12.78
2019-03-04T04:17:42.357Z,12.81
2019-03-04T04:18:21.360Z,12.82
2019-03-04T04:19:21.386Z,12.78
2019-03-04T04:20:21.403Z,12.84
2019-03-04T04:21:21.411Z,12.92
2019-03-04T04:22:21.470Z,12.95
2019-03-04T04:23:42.517Z,12.78
2019-03-04T04:24:21.466Z,12.63
2019-03-04T04:25:21.489Z,12.54
2019-03-04T04:26:21.503Z,12.54
2019-03-04T04:27:21.534Z,12.66
2019-03-04T04:28:21.541Z,12.71
2019-03-04T04:29:42.594Z,12.69
2019-03-04T04:30:21.565Z,12.66
2019-03-04T04:31:21.576Z,12.69
2019-03-04T04:32:21.696Z,12.63
2019-03-04T04:33:21.616Z,12.63
2019-03-04T04:34:21.638Z,12.67
2019-03-04T04:35:42.675Z,12.66
2019-03-04T04:36:21.674Z,12.59
2019-03-04T04:37:21.692Z,12.62
2019-03-04T04:38:21.713Z,12.57
2019-03-04T04:39:21.768Z,12.64
2019-03-04T04:40:21.741Z,12.69
2019-03-04T04:41:42.798Z,12.69
2019-03-04T04:42:21.777Z,12.63
2019-03-04T04:43:21.794Z,12.41
2019-03-04T04:44:21.865Z,12.29
2019-03-04T04:45:21.830Z,12.12
2019-03-04T04:46:21.874Z,12.34
2019-03-04T04:47:42.882Z,12.38
2019-03-04T04:48:21.874Z,12.39
2019-03-04T04:49:21.914Z,12.37
2019-03-04T04:50:21.921Z,12.26
2019-03-04T04:51:21.953Z,12.38
2019-03-04T04:52:23.336Z,12.42
2019-03-04T04:53:42.975Z,12.38
2019-03-04T04:54:22.085Z,12.15
2019-03-04T04:55:22.005Z,12.21
2019-03-04T04:56:22.031Z,12.48
2019-03-04T04:57:22.050Z,12.39
2019-03-04T04:58:22.065Z,12.41
2019-03-04T04:59:43.076Z,12.39
2019-03-04T05:00:22.082Z,12.39
2019-03-04T05:01:22.107Z,12.37
2019-03-04T05:02:22.121Z,12.20
2019-03-04T05:03:22.144Z,12.20
2019-03-04T05:04:22.283Z,12.16
2019-03-04T05:05:43.343Z,12.13
2019-03-04T05:06:22.184Z,12.20
2019-03-04T05:07:22.211Z,12.20
2019-03-04T05:08:22.227Z,12.23
2019-03-04T05:09:22.235Z,12.19
2019-03-04T05:10:22.276Z,12.21
2019-03-04T05:11:43.308Z,12.37
2019-03-04T05:12:22.295Z,12.39
2019-03-04T05:13:22.307Z,12.33
2019-03-04T05:14:22.352Z,12.34
2019-03-04T05:15:22.361Z,12.38
2019-03-04T05:16:22.358Z,12.44
2019-03-04T05:17:43.392Z,12.24
2019-03-04T05:18:22.392Z,12.30
2019-03-04T05:19:22.408Z,12.41
2019-03-04T05:20:22.439Z,12.42
2019-03-04T05:21:22.557Z,12.42
2019-03-04T05:22:22.476Z,12.41
2019-03-04T05:23:43.497Z,12.21
2019-03-04T05:24:22.501Z,12.13
2019-03-04T05:25:22.512Z,12.23
2019-03-04T05:28:04.429Z,12.38
2019-03-04T05:29:04.473Z,12.20
2019-03-04T05:30:25.496Z,11.99
2019-03-04T05:31:04.493Z,12.06
2019-03-04T05:32:04.644Z,12.20
2019-03-04T05:33:04.530Z,12.20
2019-03-04T05:34:04.553Z,12.12
2019-03-04T05:35:04.593Z,12.08
2019-03-04T05:36:25.692Z,12.13
2019-03-04T05:37:04.593Z,12.15
2019-03-04T05:38:04.616Z,12.26
2019-03-04T05:39:04.639Z,12.33
2019-03-04T05:40:04.635Z,12.39
2019-03-04T05:41:04.661Z,12.37
2019-03-04T05:42:25.692Z,12.38
2019-03-04T05:43:04.686Z,12.16
2019-03-04T05:44:04.707Z,12.05
2019-03-04T05:45:04.747Z,12.12
2019-03-04T05:46:04.781Z,12.05
2019-03-04T05:47:04.769Z,11.99
2019-03-04T05:48:25.799Z,12.11
2019-03-04T05:50:46.955Z,12.23
2019-03-04T05:51:46.960Z,12.16
2019-03-04T05:52:47.071Z,12.20
2019-03-04T05:53:47.000Z,12.11
2019-03-04T05:55:08.904Z,12.12
2019-03-04T05:55:47.047Z,11.96
2019-03-04T05:56:47.043Z,11.90
2019-03-04T05:57:47.066Z,11.89
2019-03-04T05:58:47.140Z,12.01
2019-03-04T05:59:47.112Z,12.16
2019-03-04T06:01:08.139Z,12.15
2019-03-04T06:01:47.142Z,12.16
2019-03-04T06:02:47.259Z,12.15
2019-03-04T06:03:47.260Z,12.11
2019-03-04T06:04:47.190Z,12.16
2019-03-04T06:05:47.229Z,12.20
2019-03-04T06:07:08.289Z,12.20
2019-03-04T06:07:47.238Z,12.26
2019-03-04T06:08:47.262Z,12.30
2019-03-04T06:09:47.459Z,12.39
2019-03-04T06:10:47.295Z,12.39
2019-03-04T06:11:47.310Z,12.30
2019-03-04T06:13:08.333Z,12.39
2019-03-04T06:13:47.338Z,12.42
2019-03-04T06:14:47.354Z,12.49
2019-03-04T06:15:47.361Z,12.51
2019-03-04T06:16:47.726Z,12.48
2019-03-04T06:17:47.430Z,12.52
2019-03-04T06:19:08.563Z,12.54
2019-03-04T06:19:47.444Z,12.51
2019-03-04T06:20:47.475Z,12.56
2019-03-04T06:21:47.572Z,12.51
2019-03-04T06:22:47.492Z,12.42
2019-03-04T06:23:47.557Z,12.44
2019-03-04T06:25:08.544Z,12.57
2019-03-04T06:25:47.540Z,12.44
2019-03-04T06:26:47.608Z,12.52
2019-03-04T06:27:47.591Z,12.46
2019-03-04T06:28:47.597Z,12.45
2019-03-04T06:29:47.608Z,12.49
2019-03-04T06:31:08.658Z,12.59
2019-03-04T06:31:47.673Z,12.59
2019-03-04T06:32:47.698Z,12.62
2019-03-04T06:33:47.723Z,12.60
2019-03-04T06:36:35.988Z,12.63
2019-03-04T06:37:57.030Z,12.49
2019-03-04T06:38:36.211Z,12.57
2019-03-04T06:39:36.121Z,12.44
2019-03-04T06:40:36.059Z,12.41
2019-03-04T06:41:36.070Z,12.39
2019-03-04T06:42:36.121Z,12.44
2019-03-04T06:43:59.143Z,12.42
2019-03-04T06:44:36.287Z,12.49
2019-03-04T06:45:36.155Z,12.70
2019-03-04T06:46:36.231Z,12.70
2019-03-04T06:47:36.251Z,12.85
2019-03-04T06:48:36.249Z,12.88
2019-03-04T06:49:57.225Z,12.87
2019-03-04T06:50:36.232Z,12.92
2019-03-04T06:51:36.278Z,12.96
2019-03-04T06:52:36.271Z,13.06
2019-03-04T06:53:36.277Z,13.09
2019-03-04T06:54:36.299Z,13.30
2019-03-04T06:55:57.358Z,13.36
2019-03-04T06:56:36.429Z,13.41
2019-03-04T06:57:36.368Z,13.51
2019-03-04T06:58:36.383Z,13.61
2019-03-04T06:59:36.439Z,13.62
2019-03-04T07:00:36.443Z,13.70
2019-03-04T07:01:57.439Z,13.81
2019-03-04T07:02:36.449Z,13.95
2019-03-04T07:03:36.449Z,13.98
2019-03-04T07:04:36.473Z,13.84
2019-03-04T07:05:36.488Z,13.92
2019-03-04T07:06:36.515Z,13.96
2019-03-04T07:07:57.617Z,13.99
2019-03-04T07:08:36.539Z,14.06
2019-03-04T07:09:36.584Z,14.12
2019-03-04T07:10:36.591Z,14.07
2019-03-04T07:11:36.589Z,14.09
2019-03-04T07:12:36.786Z,14.04
2019-03-04T07:13:57.651Z,14.16
2019-03-04T07:14:36.651Z,13.96
2019-03-04T07:15:36.669Z,14.04
2019-03-04T07:16:36.746Z,14.09
2019-03-04T07:17:36.725Z,13.96
2019-03-04T07:18:36.717Z,13.99
2019-03-04T07:19:57.741Z,14.09
2019-03-04T07:20:36.749Z,14.02
2019-03-04T07:21:36.761Z,13.95
2019-03-04T07:22:36.800Z,13.96
2019-03-04T07:23:36.784Z,14.01
2019-03-04T07:24:36.820Z,13.89
2019-03-04T07:27:40.003Z,13.99
2019-03-04T07:28:40.030Z,13.95
2019-03-04T07:29:40.045Z,13.94
2019-03-04T07:30:40.055Z,14.06
2019-03-04T07:31:40.062Z,13.95
2019-03-04T07:33:01.103Z,13.96
2019-03-04T07:33:40.106Z,13.83
2019-03-04T07:34:40.130Z,13.80
2019-03-04T07:35:40.262Z,13.73
2019-03-04T07:36:40.158Z,13.65
2019-03-04T07:37:40.256Z,13.61
2019-03-04T07:39:01.196Z,13.46
2019-03-04T07:39:40.217Z,13.49
2019-03-04T07:40:40.245Z,13.43
2019-03-04T07:41:40.247Z,13.38
2019-03-04T07:42:40.276Z,13.09
2019-03-04T07:43:40.298Z,13.07
2019-03-04T07:45:01.317Z,12.87
2019-03-04T07:45:40.409Z,12.82
2019-03-04T07:46:40.334Z,12.92
2019-03-04T07:47:40.348Z,13.03
2019-03-04T07:48:40.400Z,13.24
2019-03-04T07:49:40.378Z,13.27
2019-03-04T07:51:01.424Z,13.29
2019-03-04T07:51:40.412Z,13.29
2019-03-04T07:52:40.438Z,13.18
2019-03-04T07:53:46.276Z,13.22
2019-03-04T07:54:40.471Z,13.09
2019-03-04T07:55:40.497Z,13.12
2019-03-04T07:57:01.505Z,13.11
2019-03-04T07:57:40.523Z,13.29
2019-03-04T07:58:40.530Z,13.09
2019-03-04T07:59:40.553Z,13.03
2019-03-04T08:00:40.723Z,12.96
2019-03-04T08:01:40.600Z,13.04
2019-03-04T08:03:01.630Z,13.09
2019-03-04T08:03:40.617Z,13.06
2019-03-04T08:04:40.642Z,13.07
2019-03-04T08:05:40.657Z,12.99
2019-03-04T08:06:40.674Z,13.06
2019-03-04T08:07:40.705Z,13.09
2019-03-04T08:09:01.726Z,13.07
2019-03-04T08:09:40.735Z,13.11
2019-03-04T08:10:40.790Z,12.97
2019-03-04T08:11:40.759Z,13.06
2019-03-04T08:12:40.770Z,13.14
2019-03-04T08:13:40.802Z,13.21
2019-03-04T08:15:01.823Z,13.17
2019-03-04T08:15:40.839Z,13.12
2019-03-04T08:16:40.847Z,13.04
2019-03-04T08:17:40.869Z,13.09
2019-03-04T08:18:40.896Z,13.11
2019-03-04T08:19:40.908Z,13.14
2019-03-04T08:21:01.911Z,13.18
2019-03-04T08:21:40.921Z,13.33
2019-03-04T08:22:40.951Z,13.20
2019-03-04T08:23:40.996Z,13.22
2019-03-04T08:24:41.003Z,13.20
2019-03-04T08:25:41.008Z,13.12
2019-03-04T08:27:02.012Z,13.15
2019-03-04T08:27:41.027Z,13.15
2019-03-04T08:28:41.043Z,13.14
2019-03-04T08:29:41.054Z,13.22
2019-03-04T08:30:41.142Z,13.27
2019-03-04T08:31:41.112Z,13.29
2019-03-04T08:33:02.124Z,13.15
2019-03-04T08:33:41.142Z,13.12
2019-03-04T08:34:41.132Z,13.07
2019-03-04T08:35:41.192Z,13.06
2019-03-04T08:36:41.185Z,13.12
2019-03-04T08:37:41.245Z,13.18
2019-03-04T08:39:02.217Z,13.09
2019-03-04T08:39:41.232Z,13.24
2019-03-04T08:40:41.316Z,13.04
2019-03-04T08:41:41.266Z,13.11
2019-03-04T08:42:41.280Z,13.09
2019-03-04T08:43:41.356Z,13.07
2019-03-04T08:45:02.343Z,13.12
2019-03-04T08:45:41.350Z,13.07
2019-03-04T08:46:41.351Z,13.11
2019-03-04T08:47:41.463Z,13.09
2019-03-04T08:48:41.761Z,13.12
2019-03-04T08:49:41.419Z,13.14
2019-03-04T08:51:02.519Z,13.09
2019-03-04T08:51:41.441Z,13.06
2019-03-04T08:52:41.478Z,13.06
2019-03-04T08:53:41.457Z,13.14
2019-03-04T08:54:41.489Z,13.06
2019-03-04T08:55:41.529Z,13.18
2019-03-04T08:57:04.083Z,13.15
2019-03-04T08:57:41.574Z,13.17
2019-03-04T08:58:41.548Z,13.21
2019-03-04T08:59:41.603Z,13.25
2019-03-04T09:00:41.629Z,13.21
2019-03-04T09:01:41.618Z,13.25
2019-03-04T09:03:02.628Z,13.24
2019-03-04T09:03:41.690Z,13.24
2019-03-04T09:04:41.683Z,13.21
2019-03-04T09:05:41.663Z,13.17
2019-03-04T09:06:41.673Z,13.22
2019-03-04T09:07:41.724Z,13.29
2019-03-04T09:09:02.762Z,13.12
2019-03-04T09:09:41.728Z,13.11
2019-03-04T09:10:41.742Z,13.11
2019-03-04T09:11:41.847Z,13.06
2019-03-04T09:12:41.817Z,13.20
2019-03-04T09:13:42.062Z,13.29
2019-03-04T09:15:02.892Z,13.18
2019-03-04T09:15:41.842Z,13.21
2019-03-04T09:16:41.844Z,13.22
2019-03-04T09:17:41.885Z,13.21
2019-03-04T09:18:41.895Z,13.22
2019-03-04T09:19:41.953Z,13.22
2019-03-04T09:21:02.923Z,13.15
2019-03-04T09:21:41.937Z,13.29
2019-03-04T09:22:42.000Z,13.29
2019-03-04T09:23:41.989Z,13.22
2019-03-04T09:24:42.066Z,13.21
2019-03-04T09:25:41.998Z,13.22
2019-03-04T09:27:03.113Z,13.20
2019-03-04T09:27:42.037Z,13.11
2019-03-04T09:28:42.063Z,13.24
2019-03-04T09:29:42.221Z,13.12
2019-03-04T09:30:42.090Z,13.20
2019-03-04T09:31:42.134Z,13.29
2019-03-04T09:33:03.130Z,13.29
2019-03-04T09:33:42.164Z,13.33
2019-03-04T09:34:42.466Z,13.29
2019-03-04T09:35:42.271Z,13.27
2019-03-04T09:36:42.330Z,13.24
2019-03-04T09:37:42.235Z,13.24
2019-03-04T09:39:03.333Z,13.30
2019-03-04T09:39:42.239Z,13.17
2019-03-04T09:40:42.264Z,13.27
2019-03-04T09:41:42.300Z,13.18
2019-03-04T09:42:42.283Z,13.21
2019-03-04T09:43:42.336Z,13.22
2019-03-04T09:45:03.342Z,13.11
2019-03-04T09:45:42.366Z,13.17
2019-03-04T09:46:42.360Z,13.22
2019-03-04T09:47:42.434Z,13.21
2019-03-04T09:48:42.379Z,13.12
2019-03-04T09:49:42.393Z,13.11
2019-03-04T09:51:03.431Z,13.12
2019-03-04T09:51:42.424Z,13.20
2019-03-04T09:52:42.457Z,13.18
2019-03-04T09:53:43.179Z,13.25
2019-03-04T09:54:42.640Z,13.36
2019-03-04T09:55:42.491Z,13.33
2019-03-04T09:57:03.524Z,13.33
2019-03-04T09:57:42.536Z,14.16
2019-03-04T09:58:42.539Z,13.77
2019-03-04T09:59:42.572Z,13.63
2019-03-04T10:00:42.607Z,13.59
2019-03-04T10:01:42.601Z,13.36
2019-03-04T10:03:03.641Z,13.52
2019-03-04T10:03:42.639Z,13.52
2019-03-04T10:04:42.810Z,13.46
2019-03-04T10:05:42.667Z,13.46
2019-03-04T10:06:42.695Z,13.43
2019-03-04T10:07:42.739Z,13.38
2019-03-04T10:09:03.843Z,13.27
2019-03-04T10:09:42.746Z,13.22
2019-03-04T10:10:42.744Z,13.25
2019-03-04T10:11:42.786Z,13.24
2019-03-04T10:12:42.779Z,13.04
2019-03-04T10:13:42.797Z,13.15
2019-03-04T10:15:08.358Z,13.17
2019-03-04T10:15:42.865Z,13.09
2019-03-04T10:16:42.876Z,13.07
2019-03-04T10:17:42.863Z,13.14
2019-03-04T10:18:42.906Z,13.15
2019-03-04T10:19:42.916Z,13.14
2019-03-04T10:21:04.139Z,13.12
2019-03-04T10:21:42.973Z,13.06
2019-03-04T10:22:42.999Z,13.07
2019-03-04T10:23:42.990Z,12.92
2019-03-04T10:24:43.090Z,12.95
2019-03-04T10:25:43.001Z,13.07
2019-03-04T10:27:04.052Z,13.14
2019-03-04T10:27:43.035Z,13.03
2019-03-04T10:28:43.060Z,13.00
2019-03-04T10:29:43.104Z,13.06
2019-03-04T10:30:43.096Z,13.09
2019-03-04T10:31:43.101Z,12.93
2019-03-04T10:34:50.057Z,12.99
2019-03-04T10:35:50.070Z,13.07
2019-03-04T10:36:50.103Z,13.04
2019-03-04T10:37:50.113Z,13.03
2019-03-04T10:38:50.158Z,13.00
2019-03-04T10:40:11.144Z,12.93
2019-03-04T10:40:50.148Z,12.96
2019-03-04T10:41:50.177Z,12.95
2019-03-04T10:42:50.185Z,12.97
2019-03-04T10:43:50.212Z,13.12
2019-03-04T10:44:50.207Z,13.20
2019-03-04T10:46:11.289Z,13.14
2019-03-04T10:46:50.247Z,12.96
2019-03-04T10:47:50.271Z,12.96
2019-03-04T10:48:50.409Z,12.99
2019-03-04T10:49:50.305Z,12.99
2019-03-04T10:50:50.322Z,13.11
2019-03-04T10:52:11.363Z,13.11
2019-03-04T10:52:50.358Z,13.15
2019-03-04T10:53:50.396Z,13.09
2019-03-04T10:54:50.406Z,13.00
2019-03-04T10:55:50.420Z,13.06
2019-03-04T10:56:50.433Z,13.06
2019-03-04T10:58:11.453Z,13.15
2019-03-04T10:58:50.528Z,13.15
2019-03-04T10:59:50.477Z,13.07
2019-03-04T11:00:50.481Z,13.21
2019-03-04T11:01:50.588Z,13.29
2019-03-04T11:04:11.568Z,13.21
2019-03-04T11:04:50.567Z,13.14
2019-03-04T11:05:50.614Z,13.14
2019-03-04T11:06:50.593Z,12.96
2019-03-04T11:07:50.634Z,12.77
2019-03-04T11:08:50.750Z,12.97
2019-03-04T11:10:11.657Z,12.95
2019-03-04T11:10:50.650Z,13.15
2019-03-04T11:11:50.692Z,13.49
2019-03-04T11:12:50.695Z,13.32
2019-03-04T11:13:50.713Z,13.27
2019-03-04T11:14:50.731Z,13.20
2019-03-04T11:16:11.749Z,13.17
2019-03-04T11:16:50.755Z,13.20
2019-03-04T11:19:33.058Z,13.15
2019-03-04T11:20:54.096Z,13.11
2019-03-04T11:21:54.121Z,13.25
2019-03-04T11:22:33.114Z,13.30
2019-03-04T11:23:33.173Z,13.17
2019-03-04T11:24:33.169Z,13.12
2019-03-04T11:25:33.176Z,13.07
2019-03-04T11:26:33.194Z,13.18
2019-03-04T11:27:54.306Z,13.04
2019-03-04T11:28:33.224Z,13.06
2019-03-04T11:29:33.234Z,13.12
2019-03-04T11:30:33.264Z,13.21
2019-03-04T11:31:33.279Z,13.21
2019-03-04T11:32:33.274Z,13.14
2019-03-04T11:33:54.326Z,13.12
2019-03-04T11:34:33.356Z,13.24
2019-03-04T11:35:33.341Z,13.21
2019-03-04T11:36:33.348Z,13.30
2019-03-04T11:37:33.424Z,13.36
2019-03-04T11:38:33.416Z,13.27
2019-03-04T11:39:54.432Z,13.24
2019-03-04T11:40:33.433Z,13.15
2019-03-04T11:41:33.456Z,13.30
2019-03-04T11:42:33.452Z,13.27
2019-03-04T11:43:33.552Z,13.36
2019-03-04T11:44:33.506Z,13.18
2019-03-04T11:45:54.541Z,13.30
2019-03-04T11:46:33.520Z,13.41
2019-03-04T11:47:33.536Z,13.40
2019-03-04T11:48:33.571Z,13.37
2019-03-04T11:49:33.591Z,13.40
2019-03-04T11:50:33.621Z,13.40
2019-03-04T11:51:54.626Z,13.33
2019-03-04T11:52:33.650Z,13.44
2019-03-04T11:53:33.752Z,13.43
2019-03-04T11:54:33.657Z,13.46
2019-03-04T11:55:33.718Z,13.41
2019-03-04T11:56:33.695Z,13.41
2019-03-04T11:57:54.728Z,13.47
2019-03-04T11:58:33.721Z,13.44
2019-03-04T11:59:33.742Z,13.49
2019-03-04T12:02:16.072Z,13.54
2019-03-04T12:03:16.085Z,13.47
2019-03-04T12:04:37.134Z,13.52
2019-03-04T12:05:16.150Z,13.55
2019-03-04T12:06:16.159Z,13.56
2019-03-04T12:07:16.178Z,13.44
2019-03-04T12:08:16.228Z,13.46
2019-03-04T12:09:16.201Z,13.40
2019-03-04T12:10:37.241Z,13.40
2019-03-04T12:11:16.254Z,13.44
2019-03-04T12:12:16.268Z,13.55
2019-03-04T12:13:16.257Z,13.71
2019-03-04T12:14:16.305Z,13.77
2019-03-04T12:15:16.296Z,13.71
2019-03-04T12:16:37.338Z,13.58
2019-03-04T12:17:16.332Z,13.71
2019-03-04T12:18:16.390Z,14.16
2019-03-04T12:19:16.377Z,14.06
2019-03-04T12:20:16.378Z,14.01
2019-03-04T12:21:16.412Z,13.95
2019-03-04T12:22:37.445Z,14.17
2019-03-04T12:23:16.430Z,14.37
2019-03-04T12:24:16.504Z,14.50
2019-03-04T12:25:16.499Z,14.31
2019-03-04T12:26:18.484Z,14.10
2019-03-04T12:27:16.567Z,13.87
2019-03-04T12:28:37.570Z,13.89
2019-03-04T12:29:16.537Z,13.96
2019-03-04T12:30:16.554Z,13.81
2019-03-04T12:31:16.570Z,14.06
2019-03-04T12:32:16.594Z,14.01
2019-03-04T12:33:16.643Z,13.95
2019-03-04T12:34:37.717Z,14.24
2019-03-04T12:35:16.637Z,14.12
2019-03-04T12:36:16.655Z,14.16
2019-03-04T12:37:16.713Z,14.39
2019-03-04T12:38:16.700Z,14.35
2019-03-04T12:39:16.714Z,14.34
2019-03-04T12:40:37.740Z,14.47
2019-03-04T12:41:16.743Z,14.29
2019-03-04T12:42:16.756Z,14.25
2019-03-04T12:43:16.845Z,14.43
2019-03-04T12:44:16.804Z,14.61
2019-03-04T12:45:16.818Z,14.34
2019-03-04T12:46:37.858Z,14.35
2019-03-04T12:47:16.843Z,14.35
2019-03-04T12:48:16.877Z,14.37
2019-03-04T12:49:16.897Z,14.43
2019-03-04T12:50:17.014Z,14.86
2019-03-04T12:51:23.077Z,14.86
2019-03-04T12:52:37.959Z,14.61
2019-03-04T12:53:16.975Z,14.71
2019-03-04T12:54:16.980Z,14.78
2019-03-04T12:55:16.984Z,14.65
2019-03-04T12:56:17.020Z,14.62
2019-03-04T12:57:17.021Z,14.44
2019-03-04T12:58:38.058Z,14.43
2019-03-04T12:59:17.064Z,14.37
2019-03-04T13:00:17.211Z,14.21
2019-03-04T13:01:17.086Z,14.31
2019-03-04T13:02:17.107Z,14.21
2019-03-04T13:03:17.128Z,14.28
2019-03-04T13:04:38.175Z,14.28
2019-03-04T13:05:17.171Z,14.24
2019-03-04T13:06:17.182Z,14.21
2019-03-04T13:07:17.201Z,14.25
2019-03-04T13:08:17.211Z,14.14
2019-03-04T13:09:17.256Z,14.07
2019-03-04T13:10:38.272Z,14.21
2019-03-04T13:11:17.296Z,13.98
2019-03-04T13:12:17.291Z,13.98
2019-03-04T13:13:17.318Z,13.95
2019-03-04T13:14:17.330Z,13.87
2019-03-04T13:15:17.338Z,13.84
2019-03-04T13:16:38.455Z,13.73
2019-03-04T13:17:17.385Z,13.71
2019-03-04T13:18:17.420Z,13.73
2019-03-04T13:19:17.436Z,13.70
2019-03-04T13:20:17.458Z,13.62
2019-03-04T13:21:17.469Z,13.62
2019-03-04T13:22:38.491Z,13.61